Aviation Digital Data Service (ADDS)

Output produced by METARs form (2321 UTC 15 February 2019)
found at http://www.aviationweather.gov/metar/data/
 
METAR text: KTTS 152256Z AUTO 11004KT 10SM CLR 19/14 A2993 RMK AO2 SLP140 T01940142 $
Conditions at: KTTS (NASA SHUTTLE FCL, FL, US) observed 2256 UTC 15 February 2019
Temperature: 19.4°C (67°F)
Dewpoint: 14.2°C (58°F) [RH = 72%]
Pressure (altimeter): 29.93 inches Hg (1013.6 mb)
[Sea-level pressure: 1014.0 mb]
Winds: from the ESE (110 degrees) at 5 MPH (4 knots; 2.1 m/s)
Visibility: 10 or more miles (16+ km)
Ceiling: at least 12,000 feet AGL
Clouds: sky clear below 12,000 feet AGL
Weather:
SOME DATA ABOVE MAY BE INACCURATE!!!
"$" is an indication the sensor requires maintenance

METAR text: KTTS 152156Z AUTO 11005KT 10SM CLR 21/14 A2993 RMK AO2 SLP140 T02070139 FZRANO $
Conditions at: KTTS (NASA SHUTTLE FCL, FL, US) observed 2156 UTC 15 February 2019
Temperature: 20.7°C (69°F)
Dewpoint: 13.9°C (57°F) [RH = 65%]
Pressure (altimeter): 29.93 inches Hg (1013.6 mb)
[Sea-level pressure: 1014.0 mb]
Winds: from the ESE (110 degrees) at 6 MPH (5 knots; 2.6 m/s)
Visibility: 10 or more miles (16+ km)
Ceiling: at least 12,000 feet AGL
Clouds: sky clear below 12,000 feet AGL
Weather:
SOME DATA ABOVE MAY BE INACCURATE!!!
"$" is an indication the sensor requires maintenance

METAR text: KTTS 152056Z AUTO 09005KT 10SM CLR 22/12 A2994 RMK AO2 SLP143 T02190124 55011 FZRANO $
Conditions at: KTTS (NASA SHUTTLE FCL, FL, US) observed 2056 UTC 15 February 2019
Temperature: 21.9°C (71°F)
Dewpoint: 12.4°C (54°F) [RH = 55%]
Pressure (altimeter): 29.94 inches Hg (1014.0 mb)
[Sea-level pressure: 1014.3 mb]
Winds: from the E (90 degrees) at 6 MPH (5 knots; 2.6 m/s)
Visibility: 10 or more miles (16+ km)
Ceiling: at least 12,000 feet AGL
Clouds: sky clear below 12,000 feet AGL
Weather:
SOME DATA ABOVE MAY BE INACCURATE!!!
"$" is an indication the sensor requires maintenance

METAR text: KTTS 151956Z AUTO 08008KT 10SM CLR 23/14 A2994 RMK AO2 SLP143 T02300135 FZRANO $
Conditions at: KTTS (NASA SHUTTLE FCL, FL, US) observed 1956 UTC 15 February 2019
Temperature: 23.0°C (73°F)
Dewpoint: 13.5°C (56°F) [RH = 55%]
Pressure (altimeter): 29.94 inches Hg (1014.0 mb)
[Sea-level pressure: 1014.3 mb]
Winds: from the E (80 degrees) at 9 MPH (8 knots; 4.1 m/s)
Visibility: 10 or more miles (16+ km)
Ceiling: at least 12,000 feet AGL
Clouds: sky clear below 12,000 feet AGL
Weather:
SOME DATA ABOVE MAY BE INACCURATE!!!
"$" is an indication the sensor requires maintenance

METAR text: KTTS 151856Z AUTO 07007KT 10SM FEW210 23/14 A2995 RMK AO2 SLP146 T02290144 FZRANO $
Conditions at: KTTS (NASA SHUTTLE FCL, FL, US) observed 1856 UTC 15 February 2019
Temperature: 22.9°C (73°F)
Dewpoint: 14.4°C (58°F) [RH = 59%]
Pressure (altimeter): 29.95 inches Hg (1014.3 mb)
[Sea-level pressure: 1014.6 mb]
Winds: from the ENE (70 degrees) at 8 MPH (7 knots; 3.6 m/s)
Visibility: 10 or more miles (16+ km)
Ceiling: at least 12,000 feet AGL
Clouds: few clouds at 21000 feet AGL
Weather:
SOME DATA ABOVE MAY BE INACCURATE!!!
"$" is an indication the sensor requires maintenance

METAR text: KTTS 151756Z AUTO 27004KT 10SM CLR 25/14 A2998 RMK AO2 SLP156 T02460141 10246 20114 58020 FZRANO $
Conditions at: KTTS (NASA SHUTTLE FCL, FL, US) observed 1756 UTC 15 February 2019
Temperature: 24.6°C (76°F)
Dewpoint: 14.1°C (57°F) [RH = 52%]
Pressure (altimeter): 29.98 inches Hg (1015.3 mb)
[Sea-level pressure: 1015.6 mb]
Winds: from the W (270 degrees) at 5 MPH (4 knots; 2.1 m/s)
Visibility: 10 or more miles (16+ km)
Ceiling: at least 12,000 feet AGL
Clouds: sky clear below 12,000 feet AGL
Weather:
SOME DATA ABOVE MAY BE INACCURATE!!!
"$" is an indication the sensor requires maintenance

METAR text: KTTS 151656Z AUTO 26005KT 10SM CLR 24/14 A3001 RMK AO2 SLP167 T02350139 FZRANO $
Conditions at: KTTS (NASA SHUTTLE FCL, FL, US) observed 1656 UTC 15 February 2019
Temperature: 23.5°C (74°F)
Dewpoint: 13.9°C (57°F) [RH = 55%]
Pressure (altimeter): 30.01 inches Hg (1016.3 mb)
[Sea-level pressure: 1016.7 mb]
Winds: from the W (260 degrees) at 6 MPH (5 knots; 2.6 m/s)
Visibility: 10 or more miles (16+ km)
Ceiling: at least 12,000 feet AGL
Clouds: sky clear below 12,000 feet AGL
Weather:
SOME DATA ABOVE MAY BE INACCURATE!!!
"$" is an indication the sensor requires maintenance

METAR text: KTTS 151556Z AUTO 23003KT 10SM CLR 23/15 A3003 RMK AO2 SLP173 T02270145 FZRANO $
Conditions at: KTTS (NASA SHUTTLE FCL, FL, US) observed 1556 UTC 15 February 2019
Temperature: 22.7°C (73°F)
Dewpoint: 14.5°C (58°F) [RH = 60%]
Pressure (altimeter): 30.03 inches Hg (1017.0 mb)
[Sea-level pressure: 1017.3 mb]
Winds: from the SW (230 degrees) at 3 MPH (3 knots; 1.5 m/s)
Visibility: 10 or more miles (16+ km)
Ceiling: at least 12,000 feet AGL
Clouds: sky clear below 12,000 feet AGL
Weather:
SOME DATA ABOVE MAY BE INACCURATE!!!
"$" is an indication the sensor requires maintenance

METAR text: KTTS 151456Z AUTO 00000KT 10SM FEW240 20/18 A3003 RMK AO2 SLP173 T01980183 FZRANO $
Conditions at: KTTS (NASA SHUTTLE FCL, FL, US) observed 1456 UTC 15 February 2019
Temperature: 19.8°C (68°F)
Dewpoint: 18.3°C (65°F) [RH = 91%]
Pressure (altimeter): 30.03 inches Hg (1017.0 mb)
[Sea-level pressure: 1017.3 mb]
Winds: calm
Visibility: 10 or more miles (16+ km)
Ceiling: at least 12,000 feet AGL
Clouds: few clouds at 24000 feet AGL
Weather:
SOME DATA ABOVE MAY BE INACCURATE!!!
"$" is an indication the sensor requires maintenance

METAR text: KTTS 151356Z AUTO 00000KT 10SM CLR 18/17 A3002 RMK AO2 SLP170 T01770170 FZRANO $
Conditions at: KTTS (NASA SHUTTLE FCL, FL, US) observed 1356 UTC 15 February 2019
Temperature: 17.7°C (64°F)
Dewpoint: 17.0°C (63°F) [RH = 96%]
Pressure (altimeter): 30.02 inches Hg (1016.7 mb)
[Sea-level pressure: 1017.0 mb]
Winds: calm
Visibility: 10 or more miles (16+ km)
Ceiling: at least 12,000 feet AGL
Clouds: sky clear below 12,000 feet AGL
Weather:
SOME DATA ABOVE MAY BE INACCURATE!!!
"$" is an indication the sensor requires maintenance

METAR text: KTTS 151256Z AUTO 33004KT 8SM CLR 13/13 A3002 RMK AO2 VIS 2 1/4 RWY15 SLP170 T01340128 FZRANO $
Conditions at: KTTS (NASA SHUTTLE FCL, FL, US) observed 1256 UTC 15 February 2019
Temperature: 13.4°C (56°F)
Dewpoint: 12.8°C (55°F) [RH = 96%]
Pressure (altimeter): 30.02 inches Hg (1016.7 mb)
[Sea-level pressure: 1017.0 mb]
Winds: from the NNW (330 degrees) at 5 MPH (4 knots; 2.1 m/s)
Visibility: 8 miles (13 km)
Ceiling: at least 12,000 feet AGL
Clouds: sky clear below 12,000 feet AGL
Weather:
SOME DATA ABOVE MAY BE INACCURATE!!!
"$" is an indication the sensor requires maintenance

METAR text: KTTS 151253Z AUTO 33004KT 6SM BR CLR 13/12 A3002 RMK AO2 VIS 2 1/4 RWY15 SLP170 FZRANO $
Conditions at: KTTS (NASA SHUTTLE FCL, FL, US) observed 1253 UTC 15 February 2019
Temperature: 13.0°C (55°F)
Dewpoint: 12.0°C (54°F) [RH = 94%]
Pressure (altimeter): 30.02 inches Hg (1016.7 mb)
[Sea-level pressure: 1017.0 mb]
Winds: from the NNW (330 degrees) at 5 MPH (4 knots; 2.1 m/s)
Visibility: 6 miles (10 km)
Ceiling: at least 12,000 feet AGL
Clouds: sky clear below 12,000 feet AGL
Weather: BR  (mist)
SOME DATA ABOVE MAY BE INACCURATE!!!
"$" is an indication the sensor requires maintenance

METAR text: KTTS 151248Z AUTO 31004KT 2SM BR CLR 13/12 A3002 RMK AO2 VIS 5/8V2 VIS 1 1/2 RWY15 SLP170 FZRANO $
Conditions at: KTTS (NASA SHUTTLE FCL, FL, US) observed 1248 UTC 15 February 2019
Temperature: 13.0°C (55°F)
Dewpoint: 12.0°C (54°F) [RH = 94%]
Pressure (altimeter): 30.02 inches Hg (1016.7 mb)
[Sea-level pressure: 1017.0 mb]
Winds: from the NW (310 degrees) at 5 MPH (4 knots; 2.1 m/s)
Visibility: 2.00 miles (3.22 km)
Ceiling: at least 12,000 feet AGL
Clouds: sky clear below 12,000 feet AGL
Weather: BR  (mist)
SOME DATA ABOVE MAY BE INACCURATE!!!
"$" is an indication the sensor requires maintenance

METAR text: KTTS 151243Z AUTO 31003KT 7/8SM R33/4000VP6000FT BR CLR 12/11 A3001 RMK AO2 SLP167 FZRANO $
Conditions at: KTTS (NASA SHUTTLE FCL, FL, US) observed 1243 UTC 15 February 2019
Temperature: 12.0°C (54°F)
Dewpoint: 11.0°C (52°F) [RH = 94%]
Pressure (altimeter): 30.01 inches Hg (1016.3 mb)
[Sea-level pressure: 1016.7 mb]
Winds: from the NW (310 degrees) at 3 MPH (3 knots; 1.5 m/s)
Visibility: 0.88 miles (1.42 km)
Ceiling: at least 12,000 feet AGL
Clouds: sky clear below 12,000 feet AGL
Weather: BR  (mist)
SOME DATA ABOVE MAY BE INACCURATE!!!
"$" is an indication the sensor requires maintenance

METAR text: KTTS 151226Z AUTO 00000KT 3/8SM R33/2400V2800FT FG CLR 12/11 A3002 RMK AO2 VIS 3/8V6 SLP170 FZRANO $
Conditions at: KTTS (NASA SHUTTLE FCL, FL, US) observed 1226 UTC 15 February 2019
Temperature: 12.0°C (54°F)
Dewpoint: 11.0°C (52°F) [RH = 94%]
Pressure (altimeter): 30.02 inches Hg (1016.7 mb)
[Sea-level pressure: 1017.0 mb]
Winds: calm
Visibility: 0.38 miles (0.61 km)
Ceiling: at least 12,000 feet AGL
Clouds: sky clear below 12,000 feet AGL
Weather: FG  (fog)
SOME DATA ABOVE MAY BE INACCURATE!!!
"$" is an indication the sensor requires maintenance

METAR text: KTTS 151221Z AUTO 00000KT 2 1/2SM FG CLR 11/11 A3001 RMK AO2 VIS 2 1/2V9 VIS 1/4 RWY15 VIS 3/8 RWY15/33 SLP167 FZRANO $
Conditions at: KTTS (NASA SHUTTLE FCL, FL, US) observed 1221 UTC 15 February 2019
Temperature: 11.0°C (52°F)
Dewpoint: 11.0°C (52°F) [RH = 100%]
Pressure (altimeter): 30.01 inches Hg (1016.3 mb)
[Sea-level pressure: 1016.7 mb]
Winds: calm
Visibility: 2.50 miles (4.02 km)
Ceiling: at least 12,000 feet AGL
Clouds: sky clear below 12,000 feet AGL
Weather: FG  (fog)
SOME DATA ABOVE MAY BE INACCURATE!!!
"$" is an indication the sensor requires maintenance

METAR text: KTTS 151156Z AUTO 33003KT 10SM FG CLR 12/11 A3001 RMK AO2 VIS 5/8 RWY15 VIS 3/8 RWY15/33 SLP167 T01160108 10148 20116 51013 FZRANO $
Conditions at: KTTS (NASA SHUTTLE FCL, FL, US) observed 1156 UTC 15 February 2019
Temperature: 11.6°C (53°F)
Dewpoint: 10.8°C (51°F) [RH = 95%]
Pressure (altimeter): 30.01 inches Hg (1016.3 mb)
[Sea-level pressure: 1016.7 mb]
Winds: from the NNW (330 degrees) at 3 MPH (3 knots; 1.5 m/s)
Visibility: 10 or more miles (16+ km)
Ceiling: at least 12,000 feet AGL
Clouds: sky clear below 12,000 feet AGL
Weather: FG  (fog)
SOME DATA ABOVE MAY BE INACCURATE!!!
"$" is an indication the sensor requires maintenance

METAR text: KTTS 151146Z AUTO 33003KT 3SM BR CLR 12/11 A3001 RMK AO2 VIS 3/4 RWY15 PRESRR SLP167 FZRANO $
Conditions at: KTTS (NASA SHUTTLE FCL, FL, US) observed 1146 UTC 15 February 2019
Temperature: 12.0°C (54°F)
Dewpoint: 11.0°C (52°F) [RH = 94%]
Pressure (altimeter): 30.01 inches Hg (1016.3 mb)
[Sea-level pressure: 1016.7 mb]
Winds: from the NNW (330 degrees) at 3 MPH (3 knots; 1.5 m/s)
Visibility: 3 miles ( 5 km)
Ceiling: at least 12,000 feet AGL
Clouds: sky clear below 12,000 feet AGL
Weather: BR  (mist)
SOME DATA ABOVE MAY BE INACCURATE!!!
"$" is an indication the sensor requires maintenance

METAR text: KTTS 151136Z AUTO 00000KT 2 1/2SM BR CLR 12/12 A2999 RMK AO2 VIS 1 5/8V5 VIS 1 1/8 RWY15 VIS 2 RWY15/33 SLP160 FZRANO $
Conditions at: KTTS (NASA SHUTTLE FCL, FL, US) observed 1136 UTC 15 February 2019
Temperature: 12.0°C (54°F)
Dewpoint: 12.0°C (54°F) [RH = 100%]
Pressure (altimeter): 29.99 inches Hg (1015.7 mb)
[Sea-level pressure: 1016.0 mb]
Winds: calm
Visibility: 2.50 miles (4.02 km)
Ceiling: at least 12,000 feet AGL
Clouds: sky clear below 12,000 feet AGL
Weather: BR  (mist)
SOME DATA ABOVE MAY BE INACCURATE!!!
"$" is an indication the sensor requires maintenance

METAR text: KTTS 151131Z AUTO 00000KT 1 5/8SM BR CLR 12/12 A2999 RMK AO2 VIS 1 5/8V8 SLP160 FZRANO $
Conditions at: KTTS (NASA SHUTTLE FCL, FL, US) observed 1131 UTC 15 February 2019
Temperature: 12.0°C (54°F)
Dewpoint: 12.0°C (54°F) [RH = 100%]
Pressure (altimeter): 29.99 inches Hg (1015.7 mb)
[Sea-level pressure: 1016.0 mb]
Winds: calm
Visibility: 1.63 miles (2.62 km)
Ceiling: at least 12,000 feet AGL
Clouds: sky clear below 12,000 feet AGL
Weather: BR  (mist)
SOME DATA ABOVE MAY BE INACCURATE!!!
"$" is an indication the sensor requires maintenance

METAR text: KTTS 151056Z AUTO 00000KT 7SM BR CLR 13/12 A2999 RMK AO2 VIS 7/8 RWY15 VIS 5/8 RWY15/33 SLP160 T01270119 FZRANO $
Conditions at: KTTS (NASA SHUTTLE FCL, FL, US) observed 1056 UTC 15 February 2019
Temperature: 12.7°C (55°F)
Dewpoint: 11.9°C (53°F) [RH = 95%]
Pressure (altimeter): 29.99 inches Hg (1015.7 mb)
[Sea-level pressure: 1016.0 mb]
Winds: calm
Visibility: 7 miles (11 km)
Ceiling: at least 12,000 feet AGL
Clouds: sky clear below 12,000 feet AGL
Weather: BR  (mist)
SOME DATA ABOVE MAY BE INACCURATE!!!
"$" is an indication the sensor requires maintenance

METAR text: KTTS 151051Z AUTO 00000KT 4SM BR CLR 12/12 A2999 RMK AO2 VIS 7/8 RWY15 VIS 5/8 RWY15/33 SLP160 FZRANO $
Conditions at: KTTS (NASA SHUTTLE FCL, FL, US) observed 1051 UTC 15 February 2019
Temperature: 12.0°C (54°F)
Dewpoint: 12.0°C (54°F) [RH = 100%]
Pressure (altimeter): 29.99 inches Hg (1015.7 mb)
[Sea-level pressure: 1016.0 mb]
Winds: calm
Visibility: 4 miles ( 6 km)
Ceiling: at least 12,000 feet AGL
Clouds: sky clear below 12,000 feet AGL
Weather: BR  (mist)
SOME DATA ABOVE MAY BE INACCURATE!!!
"$" is an indication the sensor requires maintenance

METAR text: KTTS 151046Z AUTO 00000KT 1 1/8SM FG CLR 12/11 A3000 RMK AO2 VIS 1 1/8V6 VIS 5/8 RWY15 VIS 1/2 RWY15/33 SLP163 FZRANO $
Conditions at: KTTS (NASA SHUTTLE FCL, FL, US) observed 1046 UTC 15 February 2019
Temperature: 12.0°C (54°F)
Dewpoint: 11.0°C (52°F) [RH = 94%]
Pressure (altimeter): 30.00 inches Hg (1016.0 mb)
[Sea-level pressure: 1016.3 mb]
Winds: calm
Visibility: 1.13 miles (1.82 km)
Ceiling: at least 12,000 feet AGL
Clouds: sky clear below 12,000 feet AGL
Weather: FG  (fog)
SOME DATA ABOVE MAY BE INACCURATE!!!
"$" is an indication the sensor requires maintenance

METAR text: KTTS 151041Z AUTO 00000KT 2 1/4SM BR CLR 13/12 A2999 RMK AO2 VIS 1 3/4V10 VIS 5/8 RWY15 VIS 5/8 RWY15/33 SLP160 FZRANO $
Conditions at: KTTS (NASA SHUTTLE FCL, FL, US) observed 1041 UTC 15 February 2019
Temperature: 13.0°C (55°F)
Dewpoint: 12.0°C (54°F) [RH = 94%]
Pressure (altimeter): 29.99 inches Hg (1015.7 mb)
[Sea-level pressure: 1016.0 mb]
Winds: calm
Visibility: 2.25 miles (3.62 km)
Ceiling: at least 12,000 feet AGL
Clouds: sky clear below 12,000 feet AGL
Weather: BR  (mist)
SOME DATA ABOVE MAY BE INACCURATE!!!
"$" is an indication the sensor requires maintenance

METAR text: KTTS 150956Z AUTO 02004KT 10SM BR CLR 14/13 A2999 RMK AO2 VIS 1 RWY15 SLP160 T01380130 FZRANO $
Conditions at: KTTS (NASA SHUTTLE FCL, FL, US) observed 0956 UTC 15 February 2019
Temperature: 13.8°C (57°F)
Dewpoint: 13.0°C (55°F) [RH = 95%]
Pressure (altimeter): 29.99 inches Hg (1015.7 mb)
[Sea-level pressure: 1016.0 mb]
Winds: from the NNE (20 degrees) at 5 MPH (4 knots; 2.1 m/s)
Visibility: 10 or more miles (16+ km)
Ceiling: at least 12,000 feet AGL
Clouds: sky clear below 12,000 feet AGL
Weather: BR  (mist)
SOME DATA ABOVE MAY BE INACCURATE!!!
"$" is an indication the sensor requires maintenance

METAR text: KTTS 150856Z AUTO 05003KT 10SM FEW210 14/13 A2997 RMK AO2 SLP153 T01380130 57025 FZRANO $
Conditions at: KTTS (NASA SHUTTLE FCL, FL, US) observed 0856 UTC 15 February 2019
Temperature: 13.8°C (57°F)
Dewpoint: 13.0°C (55°F) [RH = 95%]
Pressure (altimeter): 29.97 inches Hg (1015.0 mb)
[Sea-level pressure: 1015.3 mb]
Winds: from the NE (50 degrees) at 3 MPH (3 knots; 1.5 m/s)
Visibility: 10 or more miles (16+ km)
Ceiling: at least 12,000 feet AGL
Clouds: few clouds at 21000 feet AGL
Weather:
SOME DATA ABOVE MAY BE INACCURATE!!!
"$" is an indication the sensor requires maintenance

METAR text: KTTS 150756Z AUTO 02003KT 10SM CLR 15/14 A3001 RMK AO2 SLP167 T01460136 FZRANO $
Conditions at: KTTS (NASA SHUTTLE FCL, FL, US) observed 0756 UTC 15 February 2019
Temperature: 14.6°C (58°F)
Dewpoint: 13.6°C (56°F) [RH = 94%]
Pressure (altimeter): 30.01 inches Hg (1016.3 mb)
[Sea-level pressure: 1016.7 mb]
Winds: from the NNE (20 degrees) at 3 MPH (3 knots; 1.5 m/s)
Visibility: 10 or more miles (16+ km)
Ceiling: at least 12,000 feet AGL
Clouds: sky clear below 12,000 feet AGL
Weather:
SOME DATA ABOVE MAY BE INACCURATE!!!
"$" is an indication the sensor requires maintenance

METAR text: KTTS 150656Z AUTO 02005KT 10SM CLR 15/14 A3003 RMK AO2 SLP173 T01480138 FZRANO $
Conditions at: KTTS (NASA SHUTTLE FCL, FL, US) observed 0656 UTC 15 February 2019
Temperature: 14.8°C (59°F)
Dewpoint: 13.8°C (57°F) [RH = 94%]
Pressure (altimeter): 30.03 inches Hg (1017.0 mb)
[Sea-level pressure: 1017.3 mb]
Winds: from the NNE (20 degrees) at 6 MPH (5 knots; 2.6 m/s)
Visibility: 10 or more miles (16+ km)
Ceiling: at least 12,000 feet AGL
Clouds: sky clear below 12,000 feet AGL
Weather:
SOME DATA ABOVE MAY BE INACCURATE!!!
"$" is an indication the sensor requires maintenance

METAR text: KTTS 150556Z AUTO 01005KT 10SM CLR 14/13 A3005 RMK AO2 SLP180 T01440133 10147 20128 56004 FZRANO $
Conditions at: KTTS (NASA SHUTTLE FCL, FL, US) observed 0556 UTC 15 February 2019
Temperature: 14.4°C (58°F)
Dewpoint: 13.3°C (56°F) [RH = 93%]
Pressure (altimeter): 30.05 inches Hg (1017.7 mb)
[Sea-level pressure: 1018.0 mb]
Winds: from the N (10 degrees) at 6 MPH (5 knots; 2.6 m/s)
Visibility: 10 or more miles (16+ km)
Ceiling: at least 12,000 feet AGL
Clouds: sky clear below 12,000 feet AGL
Weather:
SOME DATA ABOVE MAY BE INACCURATE!!!
"$" is an indication the sensor requires maintenance

METAR text: KTTS 150456Z AUTO 01005KT 10SM CLR 14/13 A3005 RMK AO2 SLP180 T01410130 402220092 FZRANO $
Conditions at: KTTS (NASA SHUTTLE FCL, FL, US) observed 0456 UTC 15 February 2019
Temperature: 14.1°C (57°F)
Dewpoint: 13.0°C (55°F) [RH = 93%]
Pressure (altimeter): 30.05 inches Hg (1017.7 mb)
[Sea-level pressure: 1018.0 mb]
Winds: from the N (10 degrees) at 6 MPH (5 knots; 2.6 m/s)
Visibility: 10 or more miles (16+ km)
Ceiling: at least 12,000 feet AGL
Clouds: sky clear below 12,000 feet AGL
Weather:
SOME DATA ABOVE MAY BE INACCURATE!!!
"$" is an indication the sensor requires maintenance

METAR text: KTTS 150356Z AUTO 02005KT 10SM CLR 14/13 A3005 RMK AO2 SLP180 T01420131 FZRANO $
Conditions at: KTTS (NASA SHUTTLE FCL, FL, US) observed 0356 UTC 15 February 2019
Temperature: 14.2°C (58°F)
Dewpoint: 13.1°C (56°F) [RH = 93%]
Pressure (altimeter): 30.05 inches Hg (1017.7 mb)
[Sea-level pressure: 1018.0 mb]
Winds: from the NNE (20 degrees) at 6 MPH (5 knots; 2.6 m/s)
Visibility: 10 or more miles (16+ km)
Ceiling: at least 12,000 feet AGL
Clouds: sky clear below 12,000 feet AGL
Weather:
SOME DATA ABOVE MAY BE INACCURATE!!!
"$" is an indication the sensor requires maintenance

METAR text: KTTS 150256Z AUTO 36005KT 10SM CLR 14/13 A3006 RMK AO2 SLP184 T01430132 53010 FZRANO $
Conditions at: KTTS (NASA SHUTTLE FCL, FL, US) observed 0256 UTC 15 February 2019
Temperature: 14.3°C (58°F)
Dewpoint: 13.2°C (56°F) [RH = 93%]
Pressure (altimeter): 30.06 inches Hg (1018.0 mb)
[Sea-level pressure: 1018.4 mb]
Winds: from the N (360 degrees) at 6 MPH (5 knots; 2.6 m/s)
Visibility: 10 or more miles (16+ km)
Ceiling: at least 12,000 feet AGL
Clouds: sky clear below 12,000 feet AGL
Weather:
SOME DATA ABOVE MAY BE INACCURATE!!!
"$" is an indication the sensor requires maintenance

METAR text: KTTS 150156Z AUTO 00000KT 10SM CLR 14/12 A3002 RMK AO2 SLP170 T01360123 FZRANO $
Conditions at: KTTS (NASA SHUTTLE FCL, FL, US) observed 0156 UTC 15 February 2019
Temperature: 13.6°C (56°F)
Dewpoint: 12.3°C (54°F) [RH = 92%]
Pressure (altimeter): 30.02 inches Hg (1016.7 mb)
[Sea-level pressure: 1017.0 mb]
Winds: calm
Visibility: 10 or more miles (16+ km)
Ceiling: at least 12,000 feet AGL
Clouds: sky clear below 12,000 feet AGL
Weather:
SOME DATA ABOVE MAY BE INACCURATE!!!
"$" is an indication the sensor requires maintenance

METAR text: KTTS 150056Z AUTO 02005KT 10SM CLR 14/13 A3003 RMK AO2 SLP173
Conditions at: KTTS (NASA SHUTTLE FCL, FL, US) observed 0056 UTC 15 February 2019
Temperature: 14.0°C (57°F)
Dewpoint: 13.0°C (55°F) [RH = 94%]
Pressure (altimeter): 30.03 inches Hg (1017.0 mb)
[Sea-level pressure: 1017.3 mb]
Winds: from the NNE (20 degrees) at 6 MPH (5 knots; 2.6 m/s)
Visibility: 10 or more miles (16+ km)
Ceiling: at least 12,000 feet AGL
Clouds: sky clear below 12,000 feet AGL
Weather: automated observation with no human augmentation;
there may or may not be significant weather present at this time

METAR text: KTTS 142356Z AUTO 00000KT 10SM CLR 15/13 A3003 RMK AO2 SLP173 T01470129 10221 20147 55004 $
Conditions at: KTTS (NASA SHUTTLE FCL, FL, US) observed 2356 UTC 14 February 2019
Temperature: 14.7°C (58°F)
Dewpoint: 12.9°C (55°F) [RH = 89%]
Pressure (altimeter): 30.03 inches Hg (1017.0 mb)
[Sea-level pressure: 1017.3 mb]
Winds: calm
Visibility: 10 or more miles (16+ km)
Ceiling: at least 12,000 feet AGL
Clouds: sky clear below 12,000 feet AGL
Weather:
SOME DATA ABOVE MAY BE INACCURATE!!!
"$" is an indication the sensor requires maintenance

METAR text: KTTS 142256Z AUTO 36004KT 10SM CLR 16/13 A3004 RMK AO2 SLP177 T01610134 FZRANO $
Conditions at: KTTS (NASA SHUTTLE FCL, FL, US) observed 2256 UTC 14 February 2019
Temperature: 16.1°C (61°F)
Dewpoint: 13.4°C (56°F) [RH = 84%]
Pressure (altimeter): 30.04 inches Hg (1017.4 mb)
[Sea-level pressure: 1017.7 mb]
Winds: from the N (360 degrees) at 5 MPH (4 knots; 2.1 m/s)
Visibility: 10 or more miles (16+ km)
Ceiling: at least 12,000 feet AGL
Clouds: sky clear below 12,000 feet AGL
Weather:
SOME DATA ABOVE MAY BE INACCURATE!!!
"$" is an indication the sensor requires maintenance

METAR text: KTTS 141956Z AUTO 01005KT 10SM SCT046 21/15 A3003 RMK AO2 SLP173 T02110145 FZRANO $
Conditions at: KTTS (NASA SHUTTLE FCL, FL, US) observed 1956 UTC 14 February 2019
Temperature: 21.1°C (70°F)
Dewpoint: 14.5°C (58°F) [RH = 66%]
Pressure (altimeter): 30.03 inches Hg (1017.0 mb)
[Sea-level pressure: 1017.3 mb]
Winds: from the N (10 degrees) at 6 MPH (5 knots; 2.6 m/s)
Visibility: 10 or more miles (16+ km)
Ceiling: at least 12,000 feet AGL
Clouds: scattered clouds at 4600 feet AGL
Weather:
SOME DATA ABOVE MAY BE INACCURATE!!!
"$" is an indication the sensor requires maintenance

METAR text: KTTS 141656Z AUTO 01008KT 10SM CLR 21/14 A3010 RMK AO2 SLP197 T02140141 FZRANO $
Conditions at: KTTS (NASA SHUTTLE FCL, FL, US) observed 1656 UTC 14 February 2019
Temperature: 21.4°C (71°F)
Dewpoint: 14.1°C (57°F) [RH = 63%]
Pressure (altimeter): 30.10 inches Hg (1019.4 mb)
[Sea-level pressure: 1019.7 mb]
Winds: from the N (10 degrees) at 9 MPH (8 knots; 4.1 m/s)
Visibility: 10 or more miles (16+ km)
Ceiling: at least 12,000 feet AGL
Clouds: sky clear below 12,000 feet AGL
Weather:
SOME DATA ABOVE MAY BE INACCURATE!!!
"$" is an indication the sensor requires maintenance

METAR text: KTTS 141556Z AUTO 04007KT 10SM CLR 21/14 A3013 RMK AO2 SLP207 T02080137 FZRANO $
Conditions at: KTTS (NASA SHUTTLE FCL, FL, US) observed 1556 UTC 14 February 2019
Temperature: 20.8°C (69°F)
Dewpoint: 13.7°C (57°F) [RH = 64%]
Pressure (altimeter): 30.13 inches Hg (1020.4 mb)
[Sea-level pressure: 1020.7 mb]
Winds: from the NE (40 degrees) at 8 MPH (7 knots; 3.6 m/s)
Visibility: 10 or more miles (16+ km)
Ceiling: at least 12,000 feet AGL
Clouds: sky clear below 12,000 feet AGL
Weather:
SOME DATA ABOVE MAY BE INACCURATE!!!
"$" is an indication the sensor requires maintenance

METAR text: KTTS 141456Z AUTO 07006KT 10SM CLR 20/13 A3011 RMK AO2 SLP201 50003
Conditions at: KTTS (NASA SHUTTLE FCL, FL, US) observed 1456 UTC 14 February 2019
Temperature: 20.0°C (68°F)
Dewpoint: 13.0°C (55°F) [RH = 64%]
Pressure (altimeter): 30.11 inches Hg (1019.7 mb)
[Sea-level pressure: 1020.1 mb]
Winds: from the ENE (70 degrees) at 7 MPH (6 knots; 3.1 m/s)
Visibility: 10 or more miles (16+ km)
Ceiling: at least 12,000 feet AGL
Clouds: sky clear below 12,000 feet AGL
Weather: automated observation with no human augmentation;
there may or may not be significant weather present at this time

METAR text: KTTS 141356Z AUTO 36007KT 10SM CLR 17/13 A3012 RMK AO2 SLP204
Conditions at: KTTS (NASA SHUTTLE FCL, FL, US) observed 1356 UTC 14 February 2019
Temperature: 17.0°C (63°F)
Dewpoint: 13.0°C (55°F) [RH = 77%]
Pressure (altimeter): 30.12 inches Hg (1020.1 mb)
[Sea-level pressure: 1020.4 mb]
Winds: from the N (360 degrees) at 8 MPH (7 knots; 3.6 m/s)
Visibility: 10 or more miles (16+ km)
Ceiling: at least 12,000 feet AGL
Clouds: sky clear below 12,000 feet AGL
Weather: automated observation with no human augmentation;
there may or may not be significant weather present at this time

METAR text: KTTS 141256Z AUTO 34006KT 10SM CLR 12/10 A3012 RMK AO2 SLP204 T01210103 FZRANO $
Conditions at: KTTS (NASA SHUTTLE FCL, FL, US) observed 1256 UTC 14 February 2019
Temperature: 12.1°C (54°F)
Dewpoint: 10.3°C (51°F) [RH = 89%]
Pressure (altimeter): 30.12 inches Hg (1020.1 mb)
[Sea-level pressure: 1020.4 mb]
Winds: from the NNW (340 degrees) at 7 MPH (6 knots; 3.1 m/s)
Visibility: 10 or more miles (16+ km)
Ceiling: at least 12,000 feet AGL
Clouds: sky clear below 12,000 feet AGL
Weather:
SOME DATA ABOVE MAY BE INACCURATE!!!
"$" is an indication the sensor requires maintenance

METAR text: KTTS 141156Z AUTO 35006KT 10SM CLR 11/09 A3010 RMK AO2 SLP197 70013 53002
Conditions at: KTTS (NASA SHUTTLE FCL, FL, US) observed 1156 UTC 14 February 2019
Temperature: 11.0°C (52°F)
Dewpoint: 9.0°C (48°F) [RH = 87%]
Pressure (altimeter): 30.10 inches Hg (1019.4 mb)
[Sea-level pressure: 1019.7 mb]
Winds: from the N (350 degrees) at 7 MPH (6 knots; 3.1 m/s)
Visibility: 10 or more miles (16+ km)
Ceiling: at least 12,000 feet AGL
Clouds: sky clear below 12,000 feet AGL
Weather: automated observation with no human augmentation;
there may or may not be significant weather present at this time